Time;durP1;ratioP1;P1;durP2;ratioP2;P2;SDS_P1;SDS_P2;PMS_P1;PMS_P2;Temp;Humidity;BMP_temperature;BMP_pressure;BME280_temperature;BME280_humidity;BME280_pressure;Samples;Min_cycle;Max_cycle;Signal;HPM_P1;HPM_P2
2022/12/11 00:01:45;;;;;;;10.57;8.75;;;;;;;14.29;70.31;101166.88;6195542;23;20000;-79
2022/12/11 00:04:10;;;;;;;9.93;8.75;;;;;;;14.30;70.38;101165.16;6220506;23;20010;-79
2022/12/11 00:06:35;;;;;;;10.57;9.07;;;;;;;14.29;70.13;101163.44;6194824;23;20082;-78
2022/12/11 00:09:01;;;;;;;10.95;8.68;;;;;;;14.29;69.97;101168.59;6194371;23;20420;-79
2022/12/11 00:11:27;;;;;;;10.35;9.25;;;;;;;14.31;70.26;101169.50;6219326;23;20062;-79
2022/12/11 00:13:52;;;;;;;11.45;8.85;;;;;;;14.31;69.95;101164.31;6220374;23;20314;-79
2022/12/11 00:16:18;;;;;;;11.10;8.90;;;;;;;14.29;69.96;101158.25;6248025;23;20083;-78
2022/12/11 00:18:43;;;;;;;10.05;8.95;;;;;;;14.28;69.75;101166.84;6221533;23;20008;-78
2022/12/11 00:21:13;;;;;;;9.68;8.52;;;;;;;14.28;69.42;101161.69;6248185;23;20051;-79
2022/12/11 00:23:39;;;;;;;10.05;8.40;;;;;;;14.28;69.92;101162.53;6221178;23;20371;-79
2022/12/11 00:26:07;;;;;;;11.02;8.40;;;;;;;14.26;69.38;101164.25;6220998;23;20011;-78
2022/12/11 00:28:32;;;;;;;9.50;8.50;;;;;;;14.26;69.32;101159.06;6220879;23;20004;-78
2022/12/11 00:30:58;;;;;;;9.90;8.50;;;;;;;14.25;69.16;101156.47;6195620;23;20031;-78
2022/12/11 00:33:25;;;;;;;9.32;8.30;;;;;;;14.27;69.51;101154.78;6195765;23;20015;-79
2022/12/11 00:35:51;;;;;;;10.38;8.60;;;;;;;14.26;70.05;101150.44;6220908;23;20444;-79
2022/12/11 00:38:19;;;;;;;9.30;7.70;;;;;;;14.27;69.93;101149.59;6220931;23;20008;-79
2022/12/11 00:40:46;;;;;;;9.18;8.02;;;;;;;14.28;69.68;101151.31;6221004;23;20011;-78
2022/12/11 00:43:11;;;;;;;9.20;8.18;;;;;;;14.29;69.67;101146.16;6220634;23;19996;-79
2022/12/11 00:45:40;;;;;;;9.15;7.65;;;;;;;14.31;70.21;101156.53;6195813;23;20509;-79
2022/12/11 00:48:06;;;;;;;9.48;7.75;;;;;;;14.30;69.62;101157.38;6221081;23;20014;-78
2022/12/11 00:50:32;;;;;;;8.73;7.57;;;;;;;14.32;69.89;101147.91;6220897;23;20431;-79
2022/12/11 00:52:57;;;;;;;8.45;6.93;;;;;;;14.32;69.59;101147.91;6195662;23;20099;-78
2022/12/11 00:55:24;;;;;;;9.00;7.70;;;;;;;14.34;69.51;101148.78;6195477;23;20118;-79
2022/12/11 00:57:52;;;;;;;9.95;8.05;;;;;;;14.33;69.80;101142.75;6195613;23;20007;-79
2022/12/11 01:00:18;;;;;;;8.70;7.78;;;;;;;14.32;69.48;101146.19;6171045;23;20383;-79
2022/12/11 01:02:43;;;;;;;8.43;7.53;;;;;;;14.32;69.24;101145.31;6195520;23;20027;-78
2022/12/11 01:05:09;;;;;;;9.32;7.95;;;;;;;14.32;69.56;101140.13;6195549;23;20054;-79
2022/12/11 01:07:35;;;;;;;8.98;8.02;;;;;;;14.31;69.40;101130.66;6170680;23;20433;-78
2022/12/11 01:12:44;;;;;;;8.07;7.28;;;;;;;14.30;69.11;101132.34;6247575;23;20011;-78
2022/12/11 01:15:10;;;;;;;8.00;7.05;;;;;;;14.29;69.28;101130.63;6220644;23;20004;-78
2022/12/11 01:17:36;;;;;;;8.27;7.40;;;;;;;14.30;68.84;101132.34;6247331;23;20003;-79
2022/12/11 01:20:04;;;;;;;9.05;7.80;;;;;;;14.29;69.28;101129.78;6220670;23;20035;-79
2022/12/11 01:32:50;;;;;;;9.40;7.65;;;;;;;14.26;68.76;101132.31;6296220;22;20003;-82
2022/12/11 02:21:52;;;;;;;8.98;7.93;;;;;;;14.24;68.23;101124.56;6294125;22;20038;-79
2022/12/11 02:24:36;;;;;;;8.15;7.05;;;;;;;14.27;68.14;101123.72;6281097;22;20003;-80
2022/12/11 02:27:10;;;;;;;;;;;;;;;14.26;68.26;101116.78;6282019;22;20007;-79
2022/12/11 02:29:49;;;;;;;9.15;7.80;;;;;;;14.27;68.26;101113.34;6281056;22;19903;-79
2022/12/11 02:32:26;;;;;;;8.30;7.50;;;;;;;14.27;67.89;101113.34;6308397;22;20011;-79
2022/12/11 02:35:01;;;;;;;7.85;7.03;;;;;;;14.26;68.43;101109.03;6280794;22;20015;-79
2022/12/11 02:37:30;;;;;;;7.80;7.00;;;;;;;14.26;68.67;101103.84;6281075;22;19999;-79
2022/12/11 02:39:56;;;;;;;7.25;6.55;;;;;;;14.25;68.57;101105.56;6308508;22;20011;-79
2022/12/11 02:42:27;;;;;;;7.57;6.68;;;;;;;14.26;68.81;101106.44;6308683;22;20003;-79
2022/12/11 02:44:55;;;;;;;7.15;6.45;;;;;;;14.26;68.34;101107.28;6308240;22;20435;-79
2022/12/11 02:47:22;;;;;;;7.13;6.43;;;;;;;14.27;68.23;101114.22;6281232;22;20056;-79
2022/12/11 02:55:22;;;;;;;7.03;6.32;;;;;;;14.31;67.91;101110.81;6298326;22;20243;-78
2022/12/11 02:57:51;;;;;;;6.80;6.10;;;;;;;14.32;67.67;101103.91;6255545;22;20056;-80
2022/12/11 03:00:18;;;;;;;7.20;6.50;;;;;;;14.32;68.19;101101.31;6280767;22;20056;-78
2022/12/11 03:02:44;;;;;;;6.88;6.28;;;;;;;14.30;68.17;101095.25;6281103;22;20014;-78
2022/12/11 03:05:11;;;;;;;7.03;6.25;;;;;;;14.31;67.63;101094.41;6255576;22;19999;-78
2022/12/11 03:07:38;;;;;;;6.60;5.90;;;;;;;14.32;67.89;101101.31;6308577;22;20121;-80
2022/12/11 03:10:07;;;;;;;6.60;5.88;;;;;;;14.30;68.19;101098.69;6308359;22;20003;-81
2022/12/11 03:12:37;;;;;;;6.03;5.40;;;;;;;14.30;67.96;101101.28;6281120;22;20000;-81
2022/12/11 03:15:09;;;;;;;6.75;5.97;;;;;;;14.29;67.92;101099.56;6280903;22;19999;-81
2022/12/11 03:38:33;;;;;;;5.93;5.25;;;;;;;14.29;67.50;101088.34;6304069;22;20030;-80
2022/12/11 03:41:02;;;;;;;5.90;5.30;;;;;;;14.29;67.24;101088.34;6281159;22;20002;-80
2022/12/11 03:43:31;;;;;;;5.80;5.30;;;;;;;14.29;67.37;101089.22;6280949;22;20003;-80
2022/12/11 03:45:58;;;;;;;5.85;5.25;;;;;;;14.29;67.51;101085.75;6280643;22;20023;-80
2022/12/11 03:48:31;;;;;;;5.38;4.88;;;;;;;14.29;67.49;101081.44;6256190;22;20003;-80
2022/12/11 03:50:59;;;;;;;6.07;5.47;;;;;;;14.27;67.42;101079.72;6310477;22;20383;-80
2022/12/11 03:53:26;;;;;;;5.88;5.28;;;;;;;14.27;67.16;101077.97;6282953;22;20385;-80
2022/12/11 03:55:53;;;;;;;6.20;5.43;;;;;;;14.29;67.10;101080.59;6257218;22;20015;-80
2022/12/11 03:58:18;;;;;;;5.82;5.22;;;;;;;14.27;66.88;101083.16;6310350;22;20411;-80
2022/12/11 04:00:43;;;;;;;6.05;5.45;;;;;;;14.29;67.06;101078.00;6232240;22;20007;-80
2022/12/11 04:03:12;;;;;;;5.38;4.88;;;;;;;14.27;67.02;101083.16;6283343;22;20005;-80
2022/12/11 04:05:38;;;;;;;6.03;5.43;;;;;;;14.28;67.33;101084.00;6282734;22;20078;-80
2022/12/11 04:08:04;;;;;;;5.38;4.88;;;;;;;14.28;66.93;101084.88;6257469;22;20007;-80
2022/12/11 04:10:29;;;;;;;5.38;4.88;;;;;;;14.28;67.03;101086.59;6282346;22;20048;-80
2022/12/11 04:12:54;;;;;;;5.07;4.57;;;;;;;14.28;67.00;101089.19;6309828;22;20090;-80
2022/12/11 04:15:20;;;;;;;5.38;4.88;;;;;;;14.28;66.93;101089.19;6310160;22;20006;-80
2022/12/11 04:26:06;;;;;;;5.55;4.97;;;;;;;14.27;66.70;101083.16;6310374;22;20014;-80
2022/12/11 04:28:32;;;;;;;5.28;4.78;;;;;;;14.27;66.85;101092.66;6282856;22;20008;-80
2022/12/11 04:30:57;;;;;;;6.60;5.18;;;;;;;14.27;66.93;101090.91;6283938;22;20435;-80
2022/12/11 04:33:22;;;;;;;5.25;4.75;;;;;;;14.27;67.11;101090.91;6284297;22;20466;-80
2022/12/11 04:35:48;;;;;;;5.40;4.90;;;;;;;14.28;66.66;101086.59;6285359;22;20007;-80
2022/12/11 04:38:13;;;;;;;5.18;4.68;;;;;;;14.29;67.51;101078.00;6288518;22;20015;-81
2022/12/11 04:40:39;;;;;;;5.25;4.30;;;;;;;14.29;67.28;101075.41;6266317;22;20015;-80
2022/12/11 04:43:04;;;;;;;5.30;4.60;;;;;;;14.31;67.35;101081.47;6295188;22;20003;-80
2022/12/11 04:45:29;;;;;;;5.30;4.80;;;;;;;14.33;67.00;101083.22;6291014;22;20436;-80
2022/12/11 04:47:55;;;;;;;4.55;4.15;;;;;;;14.32;66.99;101072.84;6259629;22;20007;-80
2022/12/11 04:50:20;;;;;;;4.85;4.38;;;;;;;14.32;66.65;101078.88;6282857;22;20072;-79
2022/12/11 04:52:46;;;;;;;5.10;4.57;;;;;;;14.33;66.68;101072.00;6256505;22;20018;-80
2022/12/11 04:55:11;;;;;;;5.22;4.72;;;;;;;14.33;66.61;101065.09;6282148;22;20431;-80
2022/12/11 04:57:37;;;;;;;5.18;4.68;;;;;;;14.35;66.51;101072.84;6256496;22;20359;-80
2022/12/11 05:00:06;;;;;;;5.28;4.57;;;;;;;14.33;66.51;101066.81;6281578;22;20360;-80
2022/12/11 05:02:36;;;;;;;5.40;4.90;;;;;;;14.33;66.63;101064.22;6256637;22;20053;-80
2022/12/11 05:05:05;;;;;;;5.57;5.05;;;;;;;14.35;66.68;101067.66;6282841;22;20006;-80
2022/12/11 05:07:31;;;;;;;5.07;4.57;;;;;;;14.32;66.46;101073.69;6282130;22;20034;-80
2022/12/11 05:09:56;;;;;;;5.47;4.97;;;;;;;14.33;66.55;101080.63;6282341;22;20415;-80
2022/12/11 05:12:22;;;;;;;5.93;4.90;;;;;;;14.32;66.43;101076.28;6309516;22;20082;-80
2022/12/11 05:14:51;;;;;;;5.22;4.68;;;;;;;14.31;66.33;101076.28;6281965;22;20014;-80
2022/12/11 05:17:16;;;;;;;5.13;4.63;;;;;;;14.31;66.35;101076.28;6281838;22;20003;-80
2022/12/11 05:19:41;;;;;;;5.80;5.18;;;;;;;14.30;66.59;101075.41;6256057;22;20011;-80
2022/12/11 05:22:07;;;;;;;5.80;5.00;;;;;;;14.32;66.46;101075.41;6256666;22;20092;-80
2022/12/11 05:24:32;;;;;;;5.35;4.85;;;;;;;14.32;66.42;101078.00;6231131;22;20011;-80
2022/12/11 05:26:57;;;;;;;5.97;5.32;;;;;;;14.32;66.34;101072.84;6256221;22;20010;-80
2022/12/11 05:29:23;;;;;;;5.25;4.75;;;;;;;14.32;66.17;101070.25;6256414;22;20010;-80
2022/12/11 05:31:48;;;;;;;5.72;5.15;;;;;;;14.33;65.87;101074.59;6308708;22;20030;-80
2022/12/11 05:34:14;;;;;;;5.38;4.88;;;;;;;14.32;65.93;101076.28;6309356;22;20052;-80
2022/12/11 05:36:40;;;;;;;5.97;5.05;;;;;;;14.33;66.22;101074.59;6281464;22;20090;-80
2022/12/11 05:39:05;;;;;;;5.47;4.97;;;;;;;14.32;66.00;101075.41;6281406;22;20007;-80
2022/12/11 05:41:31;;;;;;;5.38;4.55;;;;;;;14.33;66.09;101074.59;6309073;22;20084;-80
2022/12/11 05:43:57;;;;;;;5.72;5.00;;;;;;;14.31;66.00;101064.22;6281799;22;20010;-81
2022/12/11 05:46:28;;;;;;;6.70;5.45;;;;;;;14.31;66.06;101058.16;6256135;22;20011;-80
2022/12/11 05:48:56;;;;;;;5.82;5.22;;;;;;;14.33;66.01;101061.63;6281724;22;20454;-80
2022/12/11 05:51:22;;;;;;;5.72;4.97;;;;;;;14.32;66.00;101049.53;6281777;22;20003;-80
2022/12/11 05:53:49;;;;;;;5.88;5.05;;;;;;;14.33;66.07;101049.56;6281205;22;20014;-80
2022/12/11 05:56:23;;;;;;;5.95;5.22;;;;;;;14.32;65.85;101045.22;6281709;22;20007;-80
2022/12/11 05:58:49;;;;;;;5.85;5.22;;;;;;;14.32;66.02;101052.13;6309225;22;20006;-80
2022/12/11 06:01:22;;;;;;;5.85;5.25;;;;;;;14.33;65.92;101048.69;6281647;22;20031;-80
2022/12/11 06:03:47;;;;;;;6.00;5.38;;;;;;;14.32;65.78;101046.94;6308743;22;19995;-80
2022/12/11 06:06:14;;;;;;;5.88;5.28;;;;;;;14.32;65.91;101046.94;6281196;22;20038;-80
2022/12/11 06:08:39;;;;;;;6.10;5.50;;;;;;;14.32;65.84;101045.22;6256382;22;20034;-80
2022/12/11 06:11:05;;;;;;;5.75;5.15;;;;;;;14.33;65.81;101041.78;6257666;22;20416;-80
2022/12/11 06:13:30;;;;;;;5.72;4.88;;;;;;;14.31;65.59;101035.72;6284370;22;20007;-79
2022/12/11 06:16:04;;;;;;;5.50;4.95;;;;;;;14.31;65.59;101040.91;6283348;22;20010;-81
2022/12/11 06:18:30;;;;;;;;;;;;;;;14.33;65.73;101046.09;6284073;22;20152;-81
2022/12/11 06:20:55;;;;;;;5.53;4.60;;;;;;;14.32;65.52;101046.94;6288230;22;19907;-80
2022/12/11 06:23:20;;;;;;;5.53;4.78;;;;;;;14.33;65.70;101051.28;6236109;22;20087;-80
2022/12/11 06:25:47;;;;;;;5.65;4.68;;;;;;;14.31;65.49;101048.69;6313787;22;20025;-81
2022/12/11 06:28:13;;;;;;;5.40;4.78;;;;;;;14.31;65.60;101045.22;6292314;22;20015;-82
2022/12/11 06:30:47;;;;;;;5.35;4.50;;;;;;;14.30;65.61;101046.94;6297540;22;20400;-81
2022/12/11 06:33:13;;;;;;;5.28;4.78;;;;;;;14.32;65.53;101046.94;6324857;22;20054;-81
2022/12/11 06:35:38;;;;;;;5.63;4.72;;;;;;;14.33;65.90;101046.97;6321626;22;20078;-82
2022/12/11 06:38:07;;;;;;;4.97;4.47;;;;;;;14.32;65.66;101036.59;6256282;22;20041;-81
2022/12/11 06:40:32;;;;;;;5.43;4.20;;;;;;;14.32;65.70;101039.19;6280170;22;20517;-81
2022/12/11 06:42:58;;;;;;;5.32;4.82;;;;;;;14.31;65.77;101038.31;6254096;22;20000;-81
2022/12/11 06:45:23;;;;;;;5.15;4.65;;;;;;;14.33;65.70;101039.19;6279641;22;20003;-81
2022/12/11 06:47:49;;;;;;;4.95;4.45;;;;;;;14.35;65.64;101050.44;6254273;22;20467;-81
2022/12/11 06:50:14;;;;;;;6.38;4.72;;;;;;;14.36;65.68;101056.47;6253300;22;20053;-81
2022/12/11 06:52:39;;;;;;;4.63;4.13;;;;;;;14.36;65.46;101064.25;6256441;22;20012;-81
2022/12/11 06:55:05;;;;;;;4.85;4.20;;;;;;;14.36;65.43;101067.69;6252601;22;20053;-81
2022/12/11 06:57:32;;;;;;;4.40;3.95;;;;;;;14.37;65.29;101060.78;6279944;22;20062;-80
2022/12/11 08:44:47;;;;;;;9.27;3.47;;;;;;;14.98;62.27;101094.91;6266483;22;20030;-82
2022/12/11 08:47:26;;;;;;;5.45;3.70;;;;;;;15.00;62.15;101108.72;6284253;22;19999;-83
2022/12/11 08:50:03;;;;;;;5.18;3.58;;;;;;;14.98;61.94;101097.50;6336346;22;19991;-82
2022/12/11 09:06:22;;;;;;;6.15;3.63;;;;;;;14.96;61.72;101096.63;6287346;22;20007;-82
2022/12/11 09:14:54;;;;;;;8.00;3.08;;;;;;;15.03;61.60;101092.34;6271348;22;20318;-83
2022/12/11 09:17:44;;;;;;;4.85;3.20;;;;;;;15.05;61.57;101094.91;6298061;22;20042;-82
2022/12/11 10:03:02;;;;;;;6.20;3.47;;;;;;;15.24;61.77;101068.22;6261928;22;20072;-86
2022/12/11 12:04:52;;;;;;;7.85;4.32;;;;;;;15.34;63.04;101027.63;6267551;22;20015;-82
2022/12/11 12:08:03;;;;;;;9.50;4.50;;;;;;;15.38;63.13;101024.19;6302968;22;20021;-82
2022/12/11 12:11:11;;;;;;;4.68;3.90;;;;;;;15.41;62.90;101025.06;6309097;22;19991;-83
2022/12/11 12:14:09;;;;;;;7.03;4.03;;;;;;;15.41;62.97;101022.47;6306700;22;20025;-83
2022/12/11 12:20:43;;;;;;;5.80;3.97;;;;;;;15.45;63.09;101023.34;6337727;22;20010;-84
2022/12/11 12:27:07;;;;;;;5.47;4.25;;;;;;;15.45;63.05;101025.06;6338334;22;20011;-84
2022/12/11 12:30:05;;;;;;;4.80;4.10;;;;;;;15.43;62.91;101017.28;6254398;22;20016;-86
2022/12/11 12:35:45;;;;;;;4.28;3.88;;;;;;;15.42;63.08;101016.44;6284971;22;20007;-85
2022/12/11 12:38:14;;;;;;;6.07;4.57;;;;;;;15.43;63.11;101023.31;6278435;22;20051;-87
2022/12/11 12:41:25;;;;;;;6.15;4.55;;;;;;;15.42;63.07;101021.59;6305824;22;20004;-85
2022/12/11 12:52:43;;;;;;;8.32;4.50;;;;;;;15.42;63.17;101021.59;6306610;22;20006;-84
2022/12/11 12:55:17;;;;;;;5.80;4.70;;;;;;;15.42;62.91;101019.03;6283101;22;20058;-84
2022/12/11 12:58:01;;;;;;;6.03;5.03;;;;;;;15.42;62.82;101015.56;6336991;22;20003;-84
2022/12/11 13:04:02;;;;;;;5.57;4.20;;;;;;;15.40;62.78;101014.69;6336809;22;20312;-86
2022/12/11 13:10:27;;;;;;;6.10;4.25;;;;;;;15.42;62.97;101005.19;6336752;22;20040;-85
2022/12/11 14:14:49;;;;;;;4.45;3.95;;;;;;;15.47;62.07;101021.63;6270696;22;20018;-84
2022/12/11 14:17:30;;;;;;;5.47;3.88;;;;;;;15.50;62.06;101029.38;6299250;22;20022;-85
2022/12/11 14:20:06;;;;;;;6.32;4.30;;;;;;;15.50;62.20;101019.03;6303010;22;19987;-87
2022/12/11 14:25:23;;;;;;;4.60;3.85;;;;;;;15.47;62.00;101012.97;6309934;22;20027;-84
2022/12/11 14:27:53;;;;;;;4.50;4.03;;;;;;;15.48;62.19;101018.16;6331112;22;19999;-84
2022/12/11 14:30:35;;;;;;;9.68;4.32;;;;;;;15.48;62.22;101017.28;6306127;22;20014;-85
2022/12/11 14:33:10;;;;;;;5.25;4.40;;;;;;;15.47;62.05;101015.56;6333116;22;20054;-84
2022/12/11 14:35:40;;;;;;;4.55;4.10;;;;;;;15.47;61.95;101016.44;6305803;22;20003;-86
2022/12/11 14:38:29;;;;;;;6.28;4.72;;;;;;;15.47;62.02;101010.38;6333436;22;19998;-82
2022/12/11 14:41:03;;;;;;;5.28;4.55;;;;;;;15.47;61.86;101012.97;6332597;22;20020;-85
2022/12/11 14:47:36;;;;;;;6.28;4.45;;;;;;;15.45;61.83;101018.16;6210078;23;20051;-83
2022/12/11 14:50:20;;;;;;;7.22;4.45;;;;;;;15.45;61.76;101025.06;6202383;22;20019;-83
2022/12/11 14:52:50;;;;;;;5.80;4.75;;;;;;;15.42;61.84;101019.03;6329367;22;20006;-83
2022/12/11 14:58:26;;;;;;;5.78;4.57;;;;;;;15.41;61.90;101021.59;6330185;22;20018;-83
2022/12/11 15:01:32;;;;;;;8.35;4.30;;;;;;;15.43;61.83;101025.06;6298519;22;20011;-84
2022/12/11 15:07:20;;;;;;;4.72;4.22;;;;;;;15.40;61.59;101018.16;6334647;22;20071;-85
2022/12/11 15:09:50;;;;;;;5.28;4.78;;;;;;;15.41;61.65;101013.81;6332805;22;20067;-85
2022/12/11 15:12:20;;;;;;;4.82;4.03;;;;;;;15.40;61.72;101018.16;6308260;22;19983;-87
2022/12/11 15:14:57;;;;;;;5.95;4.35;;;;;;;15.40;61.81;101015.56;6335809;22;19987;-84
2022/12/11 15:17:28;;;;;;;6.05;4.60;;;;;;;15.42;61.60;101023.34;6307537;22;20010;-85
2022/12/11 15:23:16;;;;;;;5.55;4.43;;;;;;;15.43;61.62;101019.88;6308160;22;20011;-84
2022/12/11 15:25:54;;;;;;;5.45;4.57;;;;;;;15.43;61.61;101015.53;6301968;22;20086;-84
2022/12/11 15:28:42;;;;;;;8.63;4.18;;;;;;;15.45;61.71;101022.47;6302322;22;20037;-84
2022/12/11 15:38:30;;;;;;;4.95;4.38;;;;;;;15.48;61.28;101028.53;6304879;22;20034;-85
2022/12/11 15:44:41;;;;;;;5.70;4.40;;;;;;;15.45;61.42;101033.72;6301830;22;20006;-84
2022/12/11 15:50:36;;;;;;;5.80;4.20;;;;;;;15.43;61.55;101038.88;6306884;22;20034;-84
2022/12/11 15:53:25;;;;;;;7.80;4.30;;;;;;;15.46;61.40;101037.16;6243823;23;20028;-86
2022/12/11 16:49:30;;;;;;;6.03;5.40;;;;;;;15.40;60.85;101051.00;6296739;22;20022;-83
2022/12/11 18:28:32;;;;;;;10.13;7.40;;;;;;;15.52;58.68;101044.97;6280166;22;20031;-86
2022/12/11 18:31:08;;;;;;;14.93;7.47;;;;;;;15.51;58.48;101045.84;6305938;22;19999;-84
2022/12/11 18:33:43;;;;;;;10.15;7.47;;;;;;;15.46;58.46;101042.34;6275869;22;20011;-82
2022/12/11 18:39:44;;;;;;;10.95;7.50;;;;;;;15.40;58.60;101057.03;6336754;22;20001;-84
2022/12/11 18:46:03;;;;;;;12.50;7.45;;;;;;;15.37;58.72;101059.66;6240784;22;20028;-84
2022/12/11 18:49:14;;;;;;;14.98;8.25;;;;;;;15.39;58.98;101057.03;6156658;23;20006;-85
2022/12/11 18:55:11;;;;;;;15.07;9.75;;;;;;;15.37;58.69;101064.81;6180644;23;20032;-81
2022/12/11 19:03:35;;;;;;;12.48;8.88;;;;;;;15.37;58.26;101064.81;6294738;22;20045;-86
2022/12/11 19:12:45;;;;;;;12.68;8.57;;;;;;;15.34;58.69;101059.63;6333128;22;20005;-81
2022/12/11 19:15:11;;;;;;;11.88;8.57;;;;;;;15.36;58.79;101067.41;6305974;22;19991;-82
2022/12/11 19:17:42;;;;;;;10.82;8.30;;;;;;;15.37;59.00;101061.34;6275659;22;20052;-83
2022/12/11 19:20:09;;;;;;;11.43;8.15;;;;;;;15.37;59.06;101058.75;6308414;22;20007;-83
2022/12/11 19:22:35;;;;;;;13.13;8.45;;;;;;;15.36;59.14;101065.66;6283288;22;19987;-84
2022/12/11 19:25:04;;;;;;;10.75;8.07;;;;;;;15.34;59.48;101063.94;6309090;22;20450;-81
2022/12/11 19:33:45;;;;;;;10.02;7.47;;;;;;;15.38;59.71;101074.31;6337776;22;20053;-82
2022/12/11 19:39:40;;;;;;;10.52;7.43;;;;;;;15.37;59.95;101071.72;6338180;22;20045;-86
2022/12/11 19:42:06;;;;;;;10.13;7.20;;;;;;;15.39;59.97;101077.78;6337811;22;20012;-89
2022/12/11 19:44:46;;;;;;;9.40;7.32;;;;;;;15.38;60.27;101073.47;6336653;22;19990;-85
2022/12/11 19:50:46;;;;;;;12.25;8.00;;;;;;;15.39;60.26;101075.19;6295228;22;20011;-85
2022/12/11 20:03:37;;;;;;;11.02;8.20;;;;;;;15.38;60.46;101076.06;6293488;22;20024;-84
2022/12/11 20:06:12;;;;;;;13.70;7.97;;;;;;;15.37;60.25;101079.50;6244530;22;20033;-82
2022/12/11 20:12:37;;;;;;;9.85;7.60;;;;;;;15.34;60.24;101064.81;6307150;22;20023;-86
2022/12/11 20:17:43;;;;;;;8.00;7.00;;;;;;;15.36;60.21;101070.00;6289683;22;20014;-87
2022/12/11 20:23:25;;;;;;;9.57;7.22;;;;;;;15.36;59.96;101072.59;6290573;22;20042;-87
2022/12/11 20:32:01;;;;;;;9.15;7.45;;;;;;;15.33;60.02;101073.47;6289335;22;20031;-86
2022/12/11 20:48:47;;;;;;;8.20;6.72;;;;;;;15.34;59.66;101075.16;6262355;22;20030;-86
2022/12/11 21:06:32;;;;;;;9.80;6.95;;;;;;;15.32;59.70;101089.00;6261953;22;20103;-86
2022/12/11 21:09:05;;;;;;;10.02;6.55;;;;;;;15.32;59.70;101089.84;6304706;22;20051;-85
2022/12/11 21:12:07;;;;;;;;;;;;;;;15.32;59.72;101087.25;6280012;22;19994;-85
2022/12/11 21:18:04;;;;;;;9.63;6.85;;;;;;;15.32;59.52;101095.03;6259230;22;20006;-87
2022/12/11 21:23:05;;;;;;;8.82;6.75;;;;;;;15.31;59.30;101095.91;6269546;22;20039;-87
2022/12/11 21:39:34;;;;;;;8.45;6.40;;;;;;;15.31;59.33;101095.91;6257107;22;20008;-84
2022/12/11 21:42:04;;;;;;;7.65;6.35;;;;;;;15.29;59.14;101087.25;6303407;22;20035;-82
2022/12/11 21:44:30;;;;;;;6.80;5.72;;;;;;;15.30;59.26;101093.31;6303663;22;19992;-82
2022/12/11 21:46:55;;;;;;;8.35;6.38;;;;;;;15.30;59.27;101095.91;6262384;22;20090;-82
2022/12/11 21:49:21;;;;;;;7.60;6.50;;;;;;;15.31;59.22;101095.91;6290297;22;20009;-81
2022/12/11 21:51:46;;;;;;;7.05;6.03;;;;;;;15.31;59.21;101093.31;6262784;22;20035;-81
2022/12/11 21:54:14;;;;;;;7.50;6.38;;;;;;;15.31;59.02;101102.81;6291747;22;20062;-82
2022/12/11 21:56:40;;;;;;;7.20;6.50;;;;;;;15.30;59.03;101101.94;6293620;22;20003;-82
2022/12/11 21:59:06;;;;;;;6.47;5.70;;;;;;;15.30;59.04;101101.94;6295843;22;19996;-82
2022/12/11 22:01:40;;;;;;;7.00;6.18;;;;;;;15.29;58.93;101102.81;6291561;22;20022;-82
2022/12/11 22:04:07;;;;;;;7.50;6.40;;;;;;;15.29;58.74;101109.75;6292023;22;20052;-81
2022/12/11 22:06:32;;;;;;;7.18;6.10;;;;;;;15.30;58.85;101108.88;6288596;22;20001;-81
2022/12/11 22:08:58;;;;;;;12.05;8.02;;;;;;;15.28;58.89;101110.59;6278728;22;20008;-80
2022/12/11 22:11:27;;;;;;;10.52;8.10;;;;;;;15.28;58.91;101110.59;6280698;22;20015;-80
2022/12/11 22:13:53;;;;;;;11.02;7.90;;;;;;;15.28;59.00;101116.63;6277831;22;20007;-79
2022/12/11 22:16:18;;;;;;;13.45;8.57;;;;;;;15.29;58.82;101115.78;6258551;22;20015;-80
2022/12/11 22:18:44;;;;;;;13.27;8.30;;;;;;;15.30;58.52;101111.47;6278189;22;20340;-81
2022/12/11 22:21:10;;;;;;;11.38;7.68;;;;;;;15.31;58.19;101128.72;6279131;22;19996;-82
2022/12/11 22:26:24;;;;;;;13.93;8.85;;;;;;;15.30;58.55;101124.41;6282272;22;20077;-81
2022/12/11 22:28:49;;;;;;;12.57;7.93;;;;;;;15.28;58.54;101128.72;6253494;22;20019;-81
2022/12/11 22:31:19;;;;;;;10.88;8.05;;;;;;;15.29;58.54;101125.28;6280618;22;20003;-81
2022/12/11 22:33:45;;;;;;;11.68;8.82;;;;;;;15.28;58.46;101128.72;6253612;22;20431;-81
2022/12/11 22:36:10;;;;;;;11.25;7.88;;;;;;;15.29;58.33;101122.72;6255060;22;20008;-81
2022/12/11 22:38:36;;;;;;;12.57;7.78;;;;;;;15.29;58.44;101125.28;6281167;22;19999;-81
2022/12/11 22:41:14;;;;;;;9.98;7.85;;;;;;;15.28;58.22;101127.00;6254299;22;20009;-81
2022/12/11 22:43:40;;;;;;;12.88;8.27;;;;;;;15.29;58.36;101130.47;6285048;22;20003;-81
2022/12/11 22:46:05;;;;;;;11.27;7.32;;;;;;;15.27;58.26;101125.28;6254048;22;20009;-80
2022/12/11 22:48:30;;;;;;;12.02;7.53;;;;;;;15.28;58.29;101131.31;6228297;22;20090;-81
2022/12/11 22:50:56;;;;;;;11.38;7.43;;;;;;;15.28;58.14;101129.59;6253218;22;20065;-81
2022/12/11 22:53:21;;;;;;;10.88;7.63;;;;;;;15.27;57.96;101127.88;6252470;22;20317;-81
2022/12/11 22:55:47;;;;;;;9.88;7.00;;;;;;;15.27;58.01;101134.78;6227936;22;20025;-80
2022/12/11 22:58:12;;;;;;;12.43;6.88;;;;;;;15.27;58.33;101135.66;6280684;22;20007;-81
2022/12/11 23:00:39;;;;;;;11.75;7.65;;;;;;;15.27;58.02;101132.19;6253525;22;20424;-81
2022/12/11 23:03:06;;;;;;;9.85;6.85;;;;;;;15.27;58.08;101139.97;6281126;22;20024;-81
2022/12/11 23:05:31;;;;;;;10.07;7.22;;;;;;;15.25;57.63;101131.31;6228966;22;20008;-81
2022/12/11 23:07:57;;;;;;;9.10;6.63;;;;;;;15.26;57.91;101133.03;6254651;22;19999;-81
2022/12/11 23:10:23;;;;;;;9.05;7.18;;;;;;;15.25;58.00;101131.31;6253905;22;20029;-81
2022/12/11 23:12:49;;;;;;;9.50;6.50;;;;;;;15.25;57.85;101131.31;6282653;22;20000;-81
2022/12/11 23:15:16;;;;;;;8.45;6.80;;;;;;;15.24;57.77;101125.25;6215583;22;20014;-81
2022/12/11 23:17:42;;;;;;;9.45;6.47;;;;;;;15.23;57.68;101126.97;6230527;22;20007;-81
2022/12/11 23:20:07;;;;;;;10.25;6.72;;;;;;;15.23;57.64;101124.38;6254676;22;20015;-81
2022/12/11 23:22:33;;;;;;;8.88;6.45;;;;;;;15.22;57.63;101127.84;6254617;22;20026;-82
2022/12/11 23:24:58;;;;;;;9.85;6.57;;;;;;;15.23;57.85;101131.31;6223418;23;20016;-81
2022/12/11 23:27:23;;;;;;;9.18;6.20;;;;;;;15.22;57.56;101130.44;6249189;23;20004;-81
2022/12/11 23:29:49;;;;;;;8.35;6.20;;;;;;;15.25;57.57;101134.78;6250400;23;20082;-80
2022/12/11 23:32:14;;;;;;;8.70;5.95;;;;;;;15.23;57.42;101126.97;6251710;22;20007;-80
2022/12/11 23:34:40;;;;;;;8.57;6.32;;;;;;;15.23;57.46;101132.16;6223351;23;20008;-81
2022/12/11 23:37:05;;;;;;;8.48;6.28;;;;;;;15.23;57.53;101131.31;6249919;23;20441;-80
2022/12/11 23:39:31;;;;;;;8.82;6.05;;;;;;;15.22;57.21;101138.22;6238482;23;20011;-80
2022/12/11 23:41:56;;;;;;;8.10;6.03;;;;;;;15.23;57.34;101133.91;6265096;23;20064;-81
2022/12/11 23:44:22;;;;;;;9.00;5.93;;;;;;;15.24;57.45;101138.22;6233739;23;20023;-80
2022/12/11 23:46:47;;;;;;;7.53;6.35;;;;;;;15.22;57.37;101126.97;6223944;23;20004;-80
2022/12/11 23:49:13;;;;;;;7.75;5.80;;;;;;;15.23;57.50;101136.50;6248300;23;20014;-81
2022/12/11 23:51:38;;;;;;;7.60;6.10;;;;;;;15.22;57.39;101129.56;6248490;23;20409;-81
2022/12/11 23:54:07;;;;;;;7.93;6.07;;;;;;;15.22;57.35;101120.06;6247997;23;20066;-81
2022/12/11 23:56:32;;;;;;;7.03;5.72;;;;;;;15.23;57.71;101128.72;6223471;23;20004;-81
2022/12/11 23:58:58;;;;;;;8.20;6.07;;;;;;;15.21;57.29;101128.69;6249253;23;19996;-81
